createdAt,value
2023-04-30T08:01:11.927Z,535.00
2023-04-30T08:02:11.939Z,532.00
2023-04-30T08:03:11.949Z,533.00
2023-04-30T08:04:11.940Z,532.00
2023-04-30T08:05:11.896Z,532.00
2023-04-30T08:06:11.880Z,529.00
2023-04-30T08:07:11.848Z,529.00
2023-04-30T08:08:11.854Z,526.00
2023-04-30T08:09:11.859Z,526.00
2023-04-30T08:10:11.838Z,524.00
2023-04-30T08:11:11.858Z,528.00
2023-04-30T08:12:11.802Z,528.00
2023-04-30T08:13:11.814Z,530.00
2023-04-30T08:14:11.817Z,529.00
2023-04-30T08:15:11.833Z,530.00
2023-04-30T08:16:11.856Z,533.00
2023-04-30T08:17:11.796Z,534.00
2023-04-30T08:18:11.818Z,534.00
2023-04-30T08:19:11.785Z,533.00
2023-04-30T08:20:11.824Z,533.00
2023-04-30T08:21:11.854Z,534.00
2023-04-30T08:22:11.755Z,532.00
2023-04-30T08:23:11.855Z,531.00
2023-04-30T08:24:11.847Z,536.00
2023-04-30T08:25:11.902Z,536.00
2023-04-30T08:26:11.974Z,536.00
2023-04-30T08:27:12.054Z,534.00
2023-04-30T08:28:12.092Z,532.00
2023-04-30T08:29:12.138Z,527.00
2023-04-30T08:30:12.239Z,529.00
2023-04-30T08:31:12.280Z,530.00
2023-04-30T08:32:12.552Z,531.00
2023-04-30T08:33:12.479Z,530.00
2023-04-30T08:34:12.510Z,530.00
2023-04-30T08:35:12.520Z,531.00
2023-04-30T08:36:12.627Z,530.00
2023-04-30T08:37:12.610Z,529.00
2023-04-30T08:38:12.678Z,530.00
2023-04-30T08:39:12.709Z,533.00
2023-04-30T08:40:12.768Z,534.00
2023-04-30T08:41:12.913Z,532.00
2023-04-30T08:42:12.890Z,529.00
2023-04-30T08:43:13.039Z,531.00
2023-04-30T08:44:12.977Z,534.00
2023-04-30T08:45:13.042Z,534.00
2023-04-30T08:46:13.211Z,533.00
2023-04-30T08:47:13.295Z,532.00
2023-04-30T08:48:13.241Z,531.00
2023-04-30T08:49:13.276Z,530.00
2023-04-30T08:50:13.338Z,530.00
2023-04-30T08:51:13.418Z,532.00
2023-04-30T08:52:13.460Z,531.00
2023-04-30T08:53:13.555Z,528.00
2023-04-30T08:54:13.620Z,527.00
2023-04-30T08:55:13.657Z,526.00
2023-04-30T08:56:13.745Z,524.00
2023-04-30T08:57:13.750Z,525.00
2023-04-30T08:58:13.788Z,525.00
2023-04-30T08:59:13.897Z,525.00
2023-04-30T09:00:13.896Z,525.00
2023-04-30T09:01:13.998Z,525.00
2023-04-30T09:02:14.057Z,526.00
2023-04-30T09:03:14.124Z,529.00
2023-04-30T09:04:14.210Z,530.00
2023-04-30T09:05:14.164Z,532.00
2023-04-30T09:06:14.268Z,532.00
2023-04-30T09:07:14.276Z,534.00
2023-04-30T09:08:14.348Z,536.00
2023-04-30T09:09:14.362Z,534.00
2023-04-30T09:10:14.427Z,536.00
2023-04-30T09:11:14.469Z,533.00
2023-04-30T09:12:16.189Z,533.00
2023-04-30T09:13:14.521Z,534.00
2023-04-30T09:14:14.537Z,534.00
2023-04-30T09:15:14.478Z,534.00
2023-04-30T09:16:14.520Z,534.00
2023-04-30T09:17:14.499Z,531.00
2023-04-30T09:18:14.554Z,533.00
2023-04-30T09:19:14.444Z,535.00
2023-04-30T09:20:14.465Z,534.00
2023-04-30T09:21:14.646Z,535.00
2023-04-30T09:22:14.440Z,532.00
2023-04-30T09:23:14.426Z,529.00
2023-04-30T09:24:15.298Z,529.00
2023-04-30T09:25:14.465Z,531.00
2023-04-30T09:26:14.433Z,530.00
2023-04-30T09:27:14.416Z,529.00
2023-04-30T09:28:14.394Z,529.00
2023-04-30T09:29:14.409Z,528.00
2023-04-30T09:30:14.607Z,529.00
2023-04-30T09:31:14.467Z,527.00
2023-04-30T09:32:14.467Z,528.00
2023-04-30T09:33:14.534Z,528.00
2023-04-30T09:34:14.546Z,528.00
2023-04-30T09:35:14.604Z,528.00
2023-04-30T09:36:14.629Z,529.00
2023-04-30T09:37:14.658Z,527.00
2023-04-30T09:38:14.698Z,528.00
2023-04-30T09:39:16.137Z,529.00
2023-04-30T09:40:14.752Z,529.00
2023-04-30T09:41:14.870Z,529.00
2023-04-30T09:42:14.862Z,529.00
2023-04-30T09:43:14.890Z,529.00
2023-04-30T09:44:14.911Z,532.00
2023-04-30T09:45:14.995Z,532.00
2023-04-30T09:46:15.050Z,527.00
2023-04-30T09:47:15.044Z,528.00
2023-04-30T09:48:17.490Z,531.00
2023-04-30T09:49:15.043Z,530.00
2023-04-30T09:50:15.059Z,530.00
2023-04-30T09:51:15.064Z,530.00
2023-04-30T09:52:15.047Z,528.00
2023-04-30T09:53:15.053Z,527.00
2023-04-30T09:54:15.052Z,527.00
2023-04-30T09:55:15.024Z,528.00
2023-04-30T09:56:15.033Z,526.00
2023-04-30T09:57:15.003Z,525.00
2023-04-30T09:58:14.992Z,522.00
2023-04-30T09:59:15.017Z,521.00
2023-04-30T10:00:15.015Z,522.00
2023-04-30T10:01:15.183Z,523.00
2023-04-30T10:02:15.001Z,524.00
2023-04-30T10:03:15.038Z,527.00
2023-04-30T10:04:15.005Z,529.00
2023-04-30T10:05:14.973Z,529.00
2023-04-30T10:06:15.027Z,529.00
2023-04-30T10:07:16.092Z,531.00
2023-04-30T10:08:14.941Z,532.00
2023-04-30T10:09:14.936Z,533.00
2023-04-30T10:10:14.967Z,529.00
2023-04-30T10:11:14.920Z,530.00
2023-04-30T10:12:14.934Z,529.00
2023-04-30T10:13:14.895Z,528.00
2023-04-30T10:14:14.919Z,525.00
2023-04-30T10:15:14.894Z,524.00
2023-04-30T10:16:14.947Z,525.00
2023-04-30T10:17:14.862Z,527.00
2023-04-30T10:18:14.940Z,526.00
2023-04-30T10:19:14.885Z,525.00
2023-04-30T10:20:14.888Z,528.00
2023-04-30T10:21:14.825Z,529.00
2023-04-30T10:22:14.864Z,530.00
2023-04-30T10:23:14.829Z,528.00
2023-04-30T10:24:14.849Z,529.00
2023-04-30T10:25:14.809Z,526.00
2023-04-30T10:26:14.831Z,524.00
2023-04-30T10:27:14.836Z,520.00
2023-04-30T10:28:14.821Z,520.00
2023-04-30T10:29:14.862Z,517.00
2023-04-30T10:30:14.939Z,518.00
2023-04-30T10:31:14.923Z,518.00
2023-04-30T10:32:15.021Z,521.00
2023-04-30T10:33:16.610Z,522.00
2023-04-30T10:34:14.962Z,520.00
2023-04-30T10:35:15.032Z,519.00
2023-04-30T10:36:15.023Z,517.00
2023-04-30T10:37:15.044Z,519.00
2023-04-30T10:38:15.110Z,519.00
2023-04-30T10:39:15.139Z,519.00
2023-04-30T10:40:15.129Z,522.00
2023-04-30T10:41:15.220Z,525.00
2023-04-30T10:42:15.188Z,528.00
2023-04-30T10:43:15.221Z,523.00
2023-04-30T10:44:15.226Z,523.00
2023-04-30T10:45:15.299Z,524.00
2023-04-30T10:46:15.319Z,525.00
2023-04-30T10:47:15.317Z,523.00
2023-04-30T10:48:15.405Z,523.00
2023-04-30T10:49:15.348Z,521.00
2023-04-30T10:50:15.418Z,523.00
2023-04-30T10:51:15.437Z,524.00
2023-04-30T10:52:15.454Z,526.00
2023-04-30T10:53:15.447Z,527.00
2023-04-30T10:54:15.445Z,527.00
2023-04-30T10:55:15.479Z,529.00
2023-04-30T10:56:15.530Z,529.00
2023-04-30T10:57:15.544Z,526.00
2023-04-30T10:58:15.594Z,525.00
2023-04-30T10:59:15.598Z,524.00
2023-04-30T11:00:15.649Z,526.00
2023-04-30T11:01:15.798Z,525.00
2023-04-30T11:02:15.598Z,523.00
2023-04-30T11:03:15.635Z,523.00
2023-04-30T11:04:15.674Z,525.00
2023-04-30T11:05:15.722Z,526.00
2023-04-30T11:06:15.773Z,528.00
2023-04-30T11:07:15.682Z,527.00
2023-04-30T11:08:15.713Z,528.00
2023-04-30T11:09:15.757Z,531.00
2023-04-30T11:10:15.722Z,532.00
2023-04-30T11:11:15.739Z,534.00
2023-04-30T11:12:15.790Z,533.00
2023-04-30T11:13:15.789Z,534.00
2023-04-30T11:14:15.806Z,530.00
2023-04-30T11:15:15.807Z,528.00
2023-04-30T11:16:15.875Z,526.00
2023-04-30T11:17:15.803Z,525.00
2023-04-30T11:18:15.842Z,525.00
2023-04-30T11:19:15.862Z,525.00
2023-04-30T11:20:15.831Z,527.00
2023-04-30T11:21:15.903Z,527.00
2023-04-30T11:22:15.852Z,526.00
2023-04-30T11:23:25.037Z,525.00
2023-04-30T11:24:16.853Z,523.00
2023-04-30T11:25:15.858Z,523.00
2023-04-30T11:26:15.844Z,524.00
2023-04-30T11:27:15.850Z,526.00
2023-04-30T11:28:15.833Z,523.00
2023-04-30T11:29:15.866Z,522.00
2023-04-30T11:30:15.816Z,525.00
2023-04-30T11:31:15.885Z,526.00
2023-04-30T11:32:15.815Z,528.00
2023-04-30T11:33:15.804Z,529.00
2023-04-30T11:34:15.787Z,529.00
2023-04-30T11:35:15.803Z,530.00
2023-04-30T11:36:15.803Z,530.00
2023-04-30T11:37:15.756Z,531.00
2023-04-30T11:38:15.779Z,533.00
2023-04-30T11:39:15.762Z,533.00
2023-04-30T11:40:15.762Z,537.00
2023-04-30T11:41:15.781Z,534.00
2023-04-30T11:42:15.728Z,530.00
2023-04-30T11:43:15.741Z,527.00
2023-04-30T11:44:15.710Z,525.00
2023-04-30T11:45:15.753Z,523.00
2023-04-30T11:46:15.747Z,523.00
2023-04-30T11:47:15.718Z,523.00
2023-04-30T11:48:15.726Z,523.00
2023-04-30T11:49:15.701Z,524.00
2023-04-30T11:50:15.699Z,527.00
2023-04-30T11:51:15.691Z,531.00
2023-04-30T11:52:15.683Z,532.00
2023-04-30T11:53:15.645Z,531.00
2023-04-30T11:54:15.657Z,529.00
2023-04-30T11:55:15.669Z,529.00
2023-04-30T11:56:15.665Z,529.00
2023-04-30T11:57:15.646Z,527.00
2023-04-30T11:58:15.631Z,527.00
2023-04-30T11:59:15.649Z,526.00
2023-04-30T12:00:15.630Z,526.00
2023-04-30T12:01:15.644Z,526.00
2023-04-30T12:02:15.697Z,525.00
2023-04-30T12:03:15.774Z,525.00
2023-04-30T12:04:15.854Z,525.00
2023-04-30T12:05:15.768Z,524.00
2023-04-30T12:06:15.806Z,524.00
2023-04-30T12:07:15.817Z,524.00
2023-04-30T12:08:15.877Z,523.00
2023-04-30T12:09:15.897Z,523.00
2023-04-30T12:10:15.931Z,522.00
2023-04-30T12:11:16.046Z,522.00
2023-04-30T12:12:16.057Z,522.00
2023-04-30T12:13:16.090Z,522.00
2023-04-30T12:14:16.144Z,524.00
2023-04-30T12:15:16.157Z,523.00
2023-04-30T12:16:16.232Z,521.00
2023-04-30T12:17:16.257Z,520.00
2023-04-30T12:18:16.320Z,520.00
2023-04-30T12:19:16.379Z,520.00
2023-04-30T12:20:16.428Z,522.00
2023-04-30T12:21:16.587Z,521.00
2023-04-30T12:22:16.550Z,524.00
2023-04-30T12:23:16.603Z,523.00
2023-04-30T12:24:16.669Z,523.00
2023-04-30T12:25:16.716Z,521.00
2023-04-30T12:26:16.792Z,522.00
2023-04-30T12:27:16.843Z,524.00
2023-04-30T12:28:16.925Z,523.00
2023-04-30T12:29:16.984Z,523.00
2023-04-30T12:30:17.048Z,522.00
2023-04-30T12:31:17.118Z,522.00
2023-04-30T12:32:17.291Z,522.00
2023-04-30T12:33:17.315Z,521.00
2023-04-30T12:34:17.333Z,520.00
2023-04-30T12:35:17.354Z,518.00
2023-04-30T12:36:17.417Z,516.00
2023-04-30T12:37:17.490Z,519.00
2023-04-30T12:38:17.572Z,523.00
2023-04-30T12:39:17.627Z,524.00
2023-04-30T12:40:17.685Z,526.00
2023-04-30T12:41:17.844Z,527.00
2023-04-30T12:42:17.817Z,528.00
2023-04-30T12:43:17.854Z,527.00
2023-04-30T12:44:17.943Z,528.00
2023-04-30T12:45:17.976Z,525.00
2023-04-30T12:46:18.133Z,523.00
2023-04-30T12:47:18.083Z,522.00
2023-04-30T12:48:18.212Z,524.00
2023-04-30T12:49:18.256Z,524.00
2023-04-30T12:50:18.274Z,525.00
2023-04-30T12:51:18.308Z,523.00
2023-04-30T12:52:18.412Z,526.00
2023-04-30T12:53:18.445Z,525.00
2023-04-30T12:54:18.491Z,524.00
2023-04-30T12:55:18.569Z,526.00
2023-04-30T12:56:18.608Z,527.00
2023-04-30T12:57:18.669Z,527.00
2023-04-30T12:58:18.745Z,525.00
2023-04-30T12:59:18.767Z,525.00
2023-04-30T13:00:18.824Z,526.00
